Time;durP1;ratioP1;P1;durP2;ratioP2;P2;SDS_P1;SDS_P2;PMS_P1;PMS_P2;Temp;Humidity;BMP_temperature;BMP_pressure;BME280_temperature;BME280_humidity;BME280_pressure;Samples;Min_cycle;Max_cycle;Signal;HPM_P1;HPM_P2
2023/03/14 00:02:18;;;;;;;17.25;10.98;;;;;;;13.22;79.05;98836.47;5015003;28;20025;-43
2023/03/14 00:04:44;;;;;;;18.45;11.15;;;;;;;13.20;78.48;98838.81;5015031;28;20030;-43
2023/03/14 00:07:13;;;;;;;18.63;11.00;;;;;;;13.18;77.13;98838.38;5015013;28;20061;-43
2023/03/14 00:09:38;;;;;;;17.90;11.07;;;;;;;13.16;76.84;98841.53;5014944;28;20037;-43
2023/03/14 00:12:03;;;;;;;19.35;11.00;;;;;;;13.17;76.64;98853.47;5014501;28;20385;-43
2023/03/14 00:14:31;;;;;;;18.23;11.00;;;;;;;13.18;76.69;98844.75;5013026;28;20030;-43
2023/03/14 00:16:56;;;;;;;17.50;11.32;;;;;;;13.15;75.64;98830.81;5010748;28;20026;-43
2023/03/14 00:19:21;;;;;;;17.67;10.82;;;;;;;13.14;75.78;98832.00;5012038;28;20030;-43
2023/03/14 00:21:47;;;;;;;17.85;11.00;;;;;;;13.13;75.29;98838.72;5014851;28;20036;-44
2023/03/14 00:24:12;;;;;;;17.48;10.80;;;;;;;13.08;74.71;98837.06;5014446;28;20120;-43
2023/03/14 00:26:37;;;;;;;17.20;11.05;;;;;;;13.05;74.64;98846.13;5014915;28;20084;-41
2023/03/14 00:29:03;;;;;;;18.00;10.77;;;;;;;13.03;74.55;98848.47;5014670;28;20037;-43
2023/03/14 00:31:28;;;;;;;16.73;10.70;;;;;;;13.00;74.26;98852.00;5014468;28;20117;-43
2023/03/14 00:33:54;;;;;;;18.08;10.70;;;;;;;13.01;74.79;98864.69;5013617;28;20032;-43
2023/03/14 00:36:22;;;;;;;15.82;10.40;;;;;;;12.97;74.45;98864.66;5014471;28;20103;-44
2023/03/14 00:38:50;;;;;;;15.85;10.38;;;;;;;12.96;74.21;98860.25;5014433;28;20049;-40
2023/03/14 00:41:18;;;;;;;20.50;10.73;;;;;;;12.98;74.25;98871.81;5014271;28;20034;-43
2023/03/14 00:43:44;;;;;;;17.00;10.48;;;;;;;12.92;73.58;98867.72;5013626;28;20044;-41
2023/03/14 00:46:09;;;;;;;17.05;10.88;;;;;;;12.89;73.25;98865.69;5014039;28;20432;-43
2023/03/14 00:48:35;;;;;;;17.30;10.60;;;;;;;12.83;72.82;98867.97;5014274;28;20029;-42
2023/03/14 00:51:02;;;;;;;17.25;10.52;;;;;;;12.83;72.31;98869.94;5014217;28;20032;-42
2023/03/14 00:53:27;;;;;;;17.05;10.60;;;;;;;12.83;72.42;98875.50;5014130;28;20029;-42
2023/03/14 00:55:53;;;;;;;17.85;10.68;;;;;;;12.82;72.68;98874.69;5014467;28;20076;-42
2023/03/14 00:58:18;;;;;;;19.83;10.85;;;;;;;12.80;72.54;98877.03;5013749;28;20104;-42
2023/03/14 01:00:45;;;;;;;17.92;10.68;;;;;;;12.82;73.20;98879.44;5013621;28;20073;-42
2023/03/14 01:03:11;;;;;;;17.67;10.90;;;;;;;12.78;72.02;98869.09;5013802;28;20029;-42
2023/03/14 01:05:37;;;;;;;17.48;10.70;;;;;;;12.74;72.55;98859.09;5013595;28;20377;-42
2023/03/14 01:08:03;;;;;;;19.98;11.20;;;;;;;12.75;72.11;98867.03;5013550;28;20412;-44
2023/03/14 01:10:29;;;;;;;17.10;11.00;;;;;;;12.78;72.95;98871.03;5013946;28;20096;-42
2023/03/14 01:12:54;;;;;;;19.85;10.88;;;;;;;12.74;72.14;98870.19;5011063;28;20038;-43
2023/03/14 01:15:20;;;;;;;18.30;11.20;;;;;;;12.82;75.10;98868.31;5008986;28;20037;-42
2023/03/14 01:17:46;;;;;;;17.70;11.05;;;;;;;12.72;72.70;98855.88;5013232;28;20118;-43
2023/03/14 01:20:13;;;;;;;18.23;11.32;;;;;;;12.70;72.59;98859.03;5013148;28;20037;-42
2023/03/14 01:22:39;;;;;;;19.13;11.18;;;;;;;12.73;72.81;98854.72;5013668;28;20048;-43
2023/03/14 01:25:10;;;;;;;20.05;10.75;;;;;;;12.67;72.48;98861.72;5013753;28;20112;-42
2023/03/14 01:27:35;;;;;;;18.10;10.93;;;;;;;12.66;72.93;98851.81;5013822;28;20041;-44
2023/03/14 01:30:02;;;;;;;18.60;10.85;;;;;;;12.69;73.31;98842.75;5013746;28;20026;-43
2023/03/14 01:32:27;;;;;;;16.67;10.95;;;;;;;12.73;73.62;98844.41;5013213;28;20389;-46
2023/03/14 01:34:52;;;;;;;17.15;10.75;;;;;;;12.72;72.32;98851.13;5012329;28;20022;-43
2023/03/14 01:37:18;;;;;;;16.58;11.05;;;;;;;12.75;72.56;98844.06;5013619;28;20025;-43
2023/03/14 01:39:43;;;;;;;16.60;10.93;;;;;;;12.75;73.89;98835.75;5013082;28;20428;-43
2023/03/14 01:42:09;;;;;;;18.58;10.95;;;;;;;12.88;73.53;98837.13;5011645;28;20297;-42
2023/03/14 01:44:47;;;;;;;16.75;11.13;;;;;;;12.92;75.54;98832.47;5012653;28;20026;-43
2023/03/14 01:47:13;;;;;;;17.63;11.30;;;;;;;12.88;71.82;98822.47;5013281;28;20037;-43
2023/03/14 01:49:38;;;;;;;17.08;11.30;;;;;;;12.82;72.16;98821.97;5013142;28;20453;-42
2023/03/14 01:52:04;;;;;;;17.08;11.10;;;;;;;12.73;71.96;98822.22;5013142;28;20021;-42
2023/03/14 01:54:46;;;;;;;18.55;11.23;;;;;;;12.71;72.41;98816.22;5013117;28;20038;-43
2023/03/14 01:57:22;;;;;;;15.65;11.00;;;;;;;12.72;73.19;98814.28;5013007;28;20485;-42
2023/03/14 02:00:03;;;;;;;16.88;10.90;;;;;;;12.66;73.18;98807.44;5012202;28;20405;-42
2023/03/14 02:02:30;;;;;;;18.00;11.13;;;;;;;12.57;73.65;98808.47;5012013;28;20029;-42
2023/03/14 02:04:56;;;;;;;16.58;10.90;;;;;;;12.57;75.23;98805.69;5012674;28;20022;-42
2023/03/14 02:07:39;;;;;;;21.95;11.48;;;;;;;12.51;74.59;98806.38;5012148;28;20074;-43
2023/03/14 02:10:05;;;;;;;18.08;11.23;;;;;;;12.45;75.40;98812.22;5004826;28;20108;-43
2023/03/14 02:12:32;;;;;;;17.17;11.10;;;;;;;12.43;74.93;98802.69;5012287;28;20117;-42
2023/03/14 02:14:57;;;;;;;19.05;11.57;;;;;;;12.44;74.49;98809.84;5012806;28;20049;-41
2023/03/14 02:17:23;;;;;;;18.80;11.63;;;;;;;12.42;75.09;98812.16;5012391;28;20030;-41
2023/03/14 02:20:09;;;;;;;17.08;10.98;;;;;;;12.43;74.76;98806.25;5012054;28;20469;-42
2023/03/14 02:22:36;;;;;;;20.23;11.73;;;;;;;12.40;75.72;98811.72;5012106;28;20042;-42
2023/03/14 02:25:29;;;;;;;20.20;11.60;;;;;;;12.44;76.34;98809.84;5012303;28;20132;-42
2023/03/14 02:27:55;;;;;;;19.02;11.45;;;;;;;12.43;76.71;98805.44;5012594;28;20045;-43
2023/03/14 02:30:23;;;;;;;17.63;11.50;;;;;;;12.43;77.06;98803.47;5012015;28;20053;-42
2023/03/14 02:32:54;;;;;;;19.70;11.90;;;;;;;12.35;75.59;98795.41;5012394;28;20276;-42
2023/03/14 02:35:23;;;;;;;19.90;11.90;;;;;;;12.36;75.40;98797.00;5012074;28;20412;-42
2023/03/14 02:37:55;;;;;;;20.60;11.95;;;;;;;12.33;76.23;98793.81;5011310;28;20481;-43
2023/03/14 02:40:20;;;;;;;19.08;11.55;;;;;;;12.30;76.49;98786.22;5012357;28;20026;-44
2023/03/14 02:42:45;;;;;;;19.55;11.98;;;;;;;12.36;76.68;98794.25;5012185;28;20389;-45
2023/03/14 02:45:10;;;;;;;19.48;11.82;;;;;;;12.31;75.81;98800.88;5010689;28;20124;-42
2023/03/14 02:47:42;;;;;;;19.30;11.83;;;;;;;12.20;76.57;98792.34;5010838;28;20474;-42
2023/03/14 02:50:12;;;;;;;21.52;12.07;;;;;;;12.17;75.80;98796.66;5012239;28;20292;-42
2023/03/14 02:52:38;;;;;;;21.13;12.23;;;;;;;12.15;76.51;98792.66;5011915;28;20026;-41
2023/03/14 02:55:04;;;;;;;18.83;11.88;;;;;;;12.20;76.58;98791.56;5011897;28;20547;-42
2023/03/14 02:57:29;;;;;;;19.73;11.52;;;;;;;12.25;78.19;98783.75;5011975;28;20393;-42
2023/03/14 02:59:58;;;;;;;21.98;11.65;;;;;;;12.20;76.85;98781.25;5011673;28;20080;-42
2023/03/14 03:02:23;;;;;;;19.25;11.60;;;;;;;12.28;76.60;98785.78;5011356;28;20044;-42
2023/03/14 03:04:49;;;;;;;19.33;11.75;;;;;;;12.31;76.82;98789.78;5005269;28;20389;-43
2023/03/14 03:07:14;;;;;;;19.45;11.82;;;;;;;12.30;76.78;98791.75;5011963;28;20068;-42
2023/03/14 03:09:39;;;;;;;17.17;11.60;;;;;;;12.36;78.14;98783.94;5011529;28;20121;-43
2023/03/14 03:12:05;;;;;;;19.50;11.38;;;;;;;12.34;76.33;98802.91;5010324;28;20034;-43
2023/03/14 03:14:30;;;;;;;19.67;11.73;;;;;;;12.30;76.27;98794.53;5010680;28;20062;-43
2023/03/14 03:16:55;;;;;;;21.80;11.90;;;;;;;12.26;76.28;98796.44;5009499;28;20025;-43
2023/03/14 03:19:20;;;;;;;18.55;11.80;;;;;;;12.25;76.90;98805.94;5011405;28;20030;-42
2023/03/14 03:21:46;;;;;;;20.67;11.85;;;;;;;12.25;77.46;98799.56;5011433;28;20084;-43
2023/03/14 03:24:11;;;;;;;20.35;11.70;;;;;;;12.23;77.25;98799.16;5011521;28;20065;-43
2023/03/14 03:26:36;;;;;;;18.77;11.73;;;;;;;12.23;76.88;98786.09;5011059;28;20037;-43
2023/03/14 03:29:02;;;;;;;18.70;11.57;;;;;;;12.22;77.92;98783.69;5011102;28;20034;-42
2023/03/14 03:31:28;;;;;;;17.10;11.25;;;;;;;12.20;76.71;98772.16;5011087;28;20026;-42
2023/03/14 03:33:53;;;;;;;19.30;11.40;;;;;;;12.21;76.72;98784.84;5011507;28;20088;-44
2023/03/14 03:36:23;;;;;;;18.65;11.30;;;;;;;12.20;77.18;98784.03;5011155;28;20100;-43
2023/03/14 03:38:48;;;;;;;18.13;11.10;;;;;;;12.21;76.60;98785.66;5010915;28;20025;-42
2023/03/14 03:41:14;;;;;;;17.80;11.20;;;;;;;12.19;76.92;98782.44;5011577;28;20044;-43
2023/03/14 03:43:39;;;;;;;21.33;11.45;;;;;;;12.15;77.46;98787.13;5011088;28;20460;-43
2023/03/14 03:46:06;;;;;;;18.27;11.00;;;;;;;12.16;76.92;98786.75;5010862;28;20040;-42
2023/03/14 03:48:31;;;;;;;18.63;11.23;;;;;;;12.17;77.78;98768.94;5010963;28;20527;-43
2023/03/14 03:50:56;;;;;;;18.50;11.10;;;;;;;12.19;77.05;98767.78;5011310;28;20034;-43
2023/03/14 03:53:22;;;;;;;18.55;11.60;;;;;;;12.26;78.92;98760.41;5011246;28;20026;-43
2023/03/14 03:55:47;;;;;;;18.55;11.13;;;;;;;12.26;76.23;98757.63;5011348;28;20026;-43
2023/03/14 03:58:12;;;;;;;17.55;11.07;;;;;;;12.43;78.76;98759.09;5011280;28;20030;-44
2023/03/14 04:00:38;;;;;;;17.35;11.18;;;;;;;12.47;77.67;98764.69;5004417;28;20124;-43
2023/03/14 04:03:04;;;;;;;19.83;12.05;;;;;;;12.41;75.91;98758.69;5010603;28;20057;-44
2023/03/14 04:05:29;;;;;;;18.33;11.18;;;;;;;12.43;77.85;98763.84;5011504;28;20469;-43
2023/03/14 04:07:55;;;;;;;20.05;11.73;;;;;;;12.37;75.67;98771.69;5014135;28;20029;-43
2023/03/14 04:10:20;;;;;;;18.02;11.13;;;;;;;12.31;75.67;98764.84;5014451;28;20499;-42
2023/03/14 04:12:45;;;;;;;19.33;11.00;;;;;;;12.29;76.27;98764.41;5014585;28;20077;-43
2023/03/14 04:15:11;;;;;;;18.52;10.90;;;;;;;12.25;76.21;98772.66;5014250;28;20041;-42
2023/03/14 04:17:36;;;;;;;17.63;11.27;;;;;;;12.25;77.13;98763.53;5014241;28;20492;-43
2023/03/14 04:20:02;;;;;;;18.05;11.13;;;;;;;12.26;77.49;98765.94;5014664;28;20096;-43
2023/03/14 04:22:28;;;;;;;19.45;11.70;;;;;;;12.29;77.79;98767.97;5021890;28;20416;-44
2023/03/14 04:24:53;;;;;;;17.23;11.07;;;;;;;12.25;77.92;98756.03;5034217;28;20108;-42
2023/03/14 04:27:19;;;;;;;16.98;11.40;;;;;;;12.19;78.14;98754.72;5034013;28;20032;-45
2023/03/14 04:29:44;;;;;;;17.27;11.18;;;;;;;12.11;77.90;98762.13;5032481;28;20018;-42
2023/03/14 04:32:10;;;;;;;18.23;11.38;;;;;;;12.12;78.71;98757.34;5032755;28;20065;-42
2023/03/14 04:34:35;;;;;;;16.85;11.18;;;;;;;12.12;77.69;98752.63;5034546;28;20032;-42
2023/03/14 04:37:00;;;;;;;15.23;10.85;;;;;;;12.15;77.97;98760.19;5034497;28;20146;-45
2023/03/14 04:39:26;;;;;;;18.40;11.07;;;;;;;12.15;77.95;98754.66;5033791;28;20037;-42
2023/03/14 04:41:52;;;;;;;17.50;11.32;;;;;;;12.11;77.56;98745.50;5033473;28;20117;-43
2023/03/14 04:44:17;;;;;;;18.92;11.57;;;;;;;12.09;78.13;98753.34;5033390;28;20039;-43
2023/03/14 04:46:42;;;;;;;17.30;11.40;;;;;;;12.08;77.83;98745.44;5033332;28;20067;-43
2023/03/14 04:49:07;;;;;;;19.48;11.43;;;;;;;12.17;79.29;98741.22;5034247;28;20040;-42
2023/03/14 04:51:33;;;;;;;16.67;11.30;;;;;;;12.17;79.01;98741.22;5033793;28;20072;-42
2023/03/14 04:53:58;;;;;;;17.25;11.15;;;;;;;12.14;79.26;98736.41;5033952;28;20120;-43
2023/03/14 04:56:23;;;;;;;16.83;11.30;;;;;;;12.15;79.99;98751.88;5026630;28;20099;-42
2023/03/14 04:58:49;;;;;;;17.35;11.30;;;;;;;12.11;80.74;98747.44;5033844;28;20034;-42
2023/03/14 05:01:14;;;;;;;17.33;11.15;;;;;;;12.11;81.12;98747.44;5033835;28;20045;-43
2023/03/14 05:03:39;;;;;;;16.25;11.00;;;;;;;12.12;82.30;98757.34;5033746;28;20522;-46
2023/03/14 05:06:05;;;;;;;17.65;11.43;;;;;;;12.08;83.71;98750.97;5033838;28;20476;-43
2023/03/14 05:08:30;;;;;;;15.18;11.20;;;;;;;12.00;84.97;98761.09;5033802;28;20018;-43
2023/03/14 05:10:57;;;;;;;15.55;11.73;;;;;;;11.90;86.21;98762.50;5033311;28;20108;-42
2023/03/14 05:13:23;;;;;;;16.80;11.30;;;;;;;11.86;87.26;98761.59;5032865;28;20071;-43
2023/03/14 05:15:50;;;;;;;16.65;11.52;;;;;;;11.76;88.51;98762.19;5032799;28;20089;-42
2023/03/14 05:18:18;;;;;;;16.65;11.10;;;;;;;11.63;89.70;98759.56;5033588;28;20495;-45
2023/03/14 05:20:43;;;;;;;15.88;11.45;;;;;;;11.52;90.12;98756.59;5032991;28;20065;-42
2023/03/14 05:23:09;;;;;;;17.38;11.20;;;;;;;11.47;90.87;98753.31;5033379;28;20049;-44
2023/03/14 05:25:34;;;;;;;15.55;11.10;;;;;;;11.43;91.55;98739.38;5033431;28;20034;-43
2023/03/14 05:28:00;;;;;;;16.40;11.45;;;;;;;11.48;93.18;98739.09;5032816;28;20029;-42
2023/03/14 05:30:25;;;;;;;15.60;11.40;;;;;;;11.44;90.99;98738.22;5033056;28;20087;-43
2023/03/14 05:32:51;;;;;;;14.88;11.25;;;;;;;11.42;91.01;98745.28;5033243;28;20037;-43
2023/03/14 05:35:16;;;;;;;17.92;11.60;;;;;;;11.42;92.55;98734.22;5033322;28;20033;-43
2023/03/14 05:37:41;;;;;;;17.23;11.57;;;;;;;11.35;91.41;98730.13;5033340;28;20373;-43
2023/03/14 05:40:08;;;;;;;16.35;11.50;;;;;;;11.30;92.42;98733.19;5032802;28;20380;-43
2023/03/14 05:42:33;;;;;;;17.10;11.35;;;;;;;11.22;92.37;98737.75;5032999;28;20118;-43
2023/03/14 05:44:59;;;;;;;15.20;11.18;;;;;;;11.18;93.24;98736.91;5031954;28;20443;-43
2023/03/14 05:47:25;;;;;;;17.52;11.60;;;;;;;11.10;93.22;98721.28;5032390;28;20033;-43
2023/03/14 05:49:50;;;;;;;18.33;11.55;;;;;;;11.10;93.84;98720.47;5032302;28;20029;-42
2023/03/14 05:52:16;;;;;;;17.13;11.80;;;;;;;11.07;93.74;98720.03;5027492;28;20037;-42
2023/03/14 05:54:42;;;;;;;19.77;13.35;;;;;;;11.13;95.42;98714.22;5032178;28;20040;-42
2023/03/14 05:57:07;;;;;;;16.05;12.13;;;;;;;11.06;93.98;98717.63;5020135;28;20025;-43
2023/03/14 05:59:32;;;;;;;16.48;11.90;;;;;;;11.04;94.59;98712.47;5032811;28;20029;-42
2023/03/14 06:01:58;;;;;;;17.80;12.00;;;;;;;11.06;94.63;98712.09;5032697;28;20053;-43
2023/03/14 06:04:24;;;;;;;17.63;11.93;;;;;;;11.12;94.75;98707.09;5032694;28;20467;-42
2023/03/14 06:06:49;;;;;;;18.73;12.10;;;;;;;11.13;94.82;98703.16;5032457;28;20037;-42
2023/03/14 06:09:14;;;;;;;16.60;12.32;;;;;;;11.19;94.42;98705.25;5032776;28;20029;-42
2023/03/14 06:11:41;;;;;;;18.30;12.60;;;;;;;11.19;94.56;98707.25;5032599;28;20140;-44
2023/03/14 06:14:06;;;;;;;17.25;12.40;;;;;;;11.20;94.65;98706.88;5032668;28;20107;-44
2023/03/14 06:16:32;;;;;;;16.77;11.80;;;;;;;11.16;94.81;98717.06;5032376;28;20029;-43
2023/03/14 06:18:57;;;;;;;17.67;11.93;;;;;;;11.13;95.86;98708.69;5032627;28;20444;-44
2023/03/14 06:21:22;;;;;;;17.33;12.20;;;;;;;11.06;96.23;98718.44;5032434;28;20391;-44
2023/03/14 06:23:47;;;;;;;18.38;12.25;;;;;;;11.05;96.46;98713.25;5032413;28;20033;-42
2023/03/14 06:26:13;;;;;;;17.67;12.30;;;;;;;11.07;96.45;98717.28;5032434;28;20038;-42
2023/03/14 06:28:38;;;;;;;17.38;12.13;;;;;;;11.11;97.07;98719.31;5031745;28;20392;-43
2023/03/14 06:31:04;;;;;;;18.75;12.10;;;;;;;11.06;97.11;98714.88;5032468;28;20087;-42
2023/03/14 06:33:29;;;;;;;16.48;11.65;;;;;;;11.05;97.33;98721.56;5032031;28;20083;-43
2023/03/14 06:35:55;;;;;;;17.48;12.10;;;;;;;11.03;97.44;98726.66;5032437;28;20030;-43
2023/03/14 06:38:20;;;;;;;18.17;12.52;;;;;;;11.01;97.91;98726.22;5031129;28;20075;-43
2023/03/14 06:40:45;;;;;;;17.10;11.90;;;;;;;11.04;98.57;98719.97;5031035;28;20037;-44
2023/03/14 06:43:11;;;;;;;18.95;12.00;;;;;;;11.03;97.94;98726.66;5032246;28;20022;-42
2023/03/14 06:45:36;;;;;;;18.58;12.30;;;;;;;11.01;98.46;98729.78;5032340;28;20052;-43
2023/03/14 06:48:01;;;;;;;16.73;11.80;;;;;;;11.03;98.60;98723.88;5030899;28;20453;-43
2023/03/14 06:50:27;;;;;;;17.38;12.20;;;;;;;11.06;98.68;98735.03;5032340;28;20433;-42
2023/03/14 06:52:52;;;;;;;18.42;12.25;;;;;;;11.08;98.74;98732.72;5031899;28;20025;-42
2023/03/14 06:55:18;;;;;;;18.13;12.07;;;;;;;11.13;99.13;98737.16;5030465;28;20439;-41
2023/03/14 06:57:43;;;;;;;20.38;12.98;;;;;;;11.31;99.48;98731.22;5030282;28;20034;-43
2023/03/14 07:00:10;;;;;;;20.90;12.23;;;;;;;11.46;98.83;98730.34;5029559;28;20053;-42
2023/03/14 07:02:36;;;;;;;21.52;12.50;;;;;;;11.63;99.09;98736.63;5029925;28;20558;-42
2023/03/14 07:05:01;;;;;;;20.50;12.15;;;;;;;11.88;100.00;98736.28;5030044;28;20044;-42
2023/03/14 07:07:27;;;;;;;19.50;12.32;;;;;;;11.82;96.62;98736.59;5029931;28;20033;-43
2023/03/14 07:09:52;;;;;;;18.80;12.30;;;;;;;11.93;95.36;98747.88;5031415;28;20033;-41
2023/03/14 07:12:18;;;;;;;18.40;12.82;;;;;;;11.95;95.29;98751.09;5031834;28;20481;-41
2023/03/14 07:14:43;;;;;;;19.13;12.80;;;;;;;12.00;95.32;98750.81;5031727;28;20039;-40
2023/03/14 07:17:08;;;;;;;20.27;12.90;;;;;;;11.99;95.25;98748.41;5031778;28;20477;-43
2023/03/14 07:19:33;;;;;;;19.17;13.10;;;;;;;11.91;94.69;98760.50;5031640;28;20026;-43
2023/03/14 07:21:59;;;;;;;19.20;12.68;;;;;;;11.86;95.94;98762.41;5030412;28;20075;-42
2023/03/14 07:24:24;;;;;;;18.42;12.93;;;;;;;11.82;95.32;98757.94;5025853;28;20054;-42
2023/03/14 07:26:49;;;;;;;21.10;12.70;;;;;;;11.82;95.20;98780.94;5027239;28;20037;-43
2023/03/14 07:29:15;;;;;;;19.77;12.80;;;;;;;11.74;96.89;98864.25;5028212;28;20048;-42
2023/03/14 07:31:40;;;;;;;17.85;11.70;;;;;;;11.39;97.25;98877.75;5026746;28;20120;-42
2023/03/14 07:34:05;;;;;;;15.43;11.63;;;;;;;11.16;98.59;98879.53;5028057;28;20485;-42
2023/03/14 07:36:30;;;;;;;15.02;11.45;;;;;;;11.12;96.51;98889.72;5028667;28;20026;-42
2023/03/14 07:38:56;;;;;;;14.40;10.90;;;;;;;11.12;93.28;98892.50;5027643;28;20033;-46
2023/03/14 07:41:22;;;;;;;13.75;10.68;;;;;;;11.04;93.44;98908.94;5031907;28;20489;-43
2023/03/14 07:43:48;;;;;;;13.57;10.80;;;;;;;10.90;92.08;98914.91;5033208;28;20076;-42
2023/03/14 07:46:14;;;;;;;16.35;11.27;;;;;;;10.83;93.29;98917.47;5032000;28;20041;-42
2023/03/14 07:48:40;;;;;;;15.82;11.50;;;;;;;10.64;92.14;98920.94;5033355;28;20021;-42
2023/03/14 07:51:06;;;;;;;14.75;11.15;;;;;;;10.59;92.37;98935.81;5033233;28;20076;-42
2023/03/14 07:53:31;;;;;;;15.10;10.90;;;;;;;10.60;93.18;98947.66;5033292;28;20068;-43
2023/03/14 07:55:56;;;;;;;15.95;11.20;;;;;;;10.63;93.18;98952.50;5033092;28;20040;-42
2023/03/14 07:58:22;;;;;;;15.35;11.10;;;;;;;10.60;91.11;98948.47;5033006;28;20025;-42
2023/03/14 08:00:48;;;;;;;13.43;11.10;;;;;;;10.51;91.79;98961.66;5032797;28;20057;-42
2023/03/14 08:03:13;;;;;;;14.38;11.00;;;;;;;10.55;92.63;98967.28;5033253;28;20069;-43
2023/03/14 08:05:39;;;;;;;15.40;11.30;;;;;;;10.55;90.96;98976.38;5033139;28;20108;-42
2023/03/14 08:08:05;;;;;;;15.80;11.02;;;;;;;10.53;92.00;98986.97;5032854;28;20430;-42
2023/03/14 08:10:31;;;;;;;15.70;11.15;;;;;;;10.44;91.33;98997.38;5032736;28;20064;-48
2023/03/14 08:12:59;;;;;;;15.00;11.20;;;;;;;10.36;92.39;99010.16;5033108;28;20112;-42
2023/03/14 08:15:25;;;;;;;14.43;10.95;;;;;;;10.40;92.42;99022.16;5033421;28;20033;-43
2023/03/14 08:17:52;;;;;;;14.02;10.57;;;;;;;10.48;92.06;99033.44;5032888;28;20348;-42
2023/03/14 08:20:18;;;;;;;15.38;10.77;;;;;;;10.52;91.84;99026.03;5032771;28;20451;-42
2023/03/14 08:22:44;;;;;;;16.05;10.88;;;;;;;10.57;90.42;99034.09;5032639;28;20057;-42
2023/03/14 08:25:10;;;;;;;14.95;10.70;;;;;;;10.60;88.09;99061.03;5032592;28;20068;-43
2023/03/14 08:27:37;;;;;;;15.48;10.75;;;;;;;10.60;89.00;99061.03;5032344;28;20056;-42
2023/03/14 08:30:04;;;;;;;14.88;10.90;;;;;;;10.61;90.27;99073.72;5032736;28;20104;-44
2023/03/14 08:32:29;;;;;;;16.05;10.95;;;;;;;10.72;88.63;99066.53;5032554;28;20449;-43
2023/03/14 08:34:55;;;;;;;13.68;10.77;;;;;;;10.71;88.49;99086.25;5032637;28;20065;-42
2023/03/14 08:37:20;;;;;;;16.45;11.10;;;;;;;10.76;89.09;99100.66;5031134;28;20111;-42
2023/03/14 08:39:46;;;;;;;15.05;11.05;;;;;;;10.71;87.42;99100.09;5032681;28;20117;-43
2023/03/14 08:42:11;;;;;;;15.48;11.20;;;;;;;10.71;87.47;99109.19;5032471;28;20029;-42
2023/03/14 08:44:37;;;;;;;13.93;10.80;;;;;;;10.76;86.88;99108.94;5032261;28;20361;-42
2023/03/14 08:47:03;;;;;;;15.35;11.15;;;;;;;10.68;86.75;99120.13;5032322;28;20033;-42
2023/03/14 08:49:28;;;;;;;14.20;10.63;;;;;;;10.69;86.80;99125.31;5030860;28;20030;-42
2023/03/14 08:51:53;;;;;;;16.63;11.02;;;;;;;10.68;86.70;99137.53;5031695;28;20087;-42
2023/03/14 08:54:19;;;;;;;15.65;11.20;;;;;;;10.61;86.26;99131.78;5031848;28;20551;-42
2023/03/14 08:56:44;;;;;;;16.02;11.13;;;;;;;10.57;86.61;99142.72;5032127;28;20047;-42
2023/03/14 08:59:10;;;;;;;15.70;11.10;;;;;;;10.46;86.67;99163.72;5031875;28;20377;-42
2023/03/14 09:01:36;;;;;;;15.90;10.98;;;;;;;10.45;88.42;99173.97;5032008;28;20056;-42
2023/03/14 09:04:01;;;;;;;17.50;11.07;;;;;;;10.44;89.00;99191.72;5031703;28;20109;-42
2023/03/14 09:06:26;;;;;;;14.50;10.95;;;;;;;10.40;87.64;99196.31;5031781;28;20036;-42
2023/03/14 09:08:52;;;;;;;14.82;10.98;;;;;;;10.42;88.86;99202.31;5031686;28;20025;-42
2023/03/14 09:11:18;;;;;;;16.80;11.20;;;;;;;10.41;88.87;99206.22;5031672;28;20069;-42
2023/03/14 09:13:43;;;;;;;16.05;11.38;;;;;;;10.32;88.08;99216.53;5031785;28;20153;-42
2023/03/14 09:16:09;;;;;;;14.93;10.70;;;;;;;10.21;88.22;99238.31;5030234;28;20116;-42
2023/03/14 09:18:35;;;;;;;14.15;11.00;;;;;;;10.24;89.59;99237.63;5031650;28;20369;-42
2023/03/14 09:21:00;;;;;;;16.42;10.95;;;;;;;10.25;88.70;99243.94;5031649;28;20034;-42
2023/03/14 09:23:25;;;;;;;15.90;11.20;;;;;;;10.30;85.49;99252.84;5031410;28;20079;-42
2023/03/14 09:25:55;;;;;;;16.95;11.25;;;;;;;10.32;86.16;99271.03;5031382;28;20585;-42
2023/03/14 09:28:21;;;;;;;17.25;12.00;;;;;;;10.32;87.43;99304.19;5031453;28;20030;-43
2023/03/14 09:30:46;;;;;;;16.08;11.20;;;;;;;10.20;85.63;99311.31;5031240;28;20029;-42
2023/03/14 09:33:11;;;;;;;12.60;10.18;;;;;;;10.18;85.57;99332.94;5031620;28;20034;-42
2023/03/14 09:35:37;;;;;;;14.18;10.20;;;;;;;10.06;84.05;99333.72;5031361;28;20025;-42
2023/03/14 09:38:02;;;;;;;14.18;10.27;;;;;;;10.12;84.58;99350.91;5029377;28;20590;-42
2023/03/14 09:40:33;;;;;;;14.07;10.20;;;;;;;10.07;83.19;99356.63;5031122;28;20041;-42
2023/03/14 09:42:58;;;;;;;12.95;9.90;;;;;;;10.03;79.53;99386.88;5031087;28;20120;-42
2023/03/14 09:45:34;;;;;;;13.05;10.15;;;;;;;10.02;80.45;99390.78;5031274;28;20145;-42
2023/03/14 09:48:02;;;;;;;13.07;10.13;;;;;;;9.97;79.38;99394.56;5031174;28;20041;-42
2023/03/14 09:50:36;;;;;;;13.45;10.20;;;;;;;10.00;79.57;99426.25;5030745;28;20033;-41
2023/03/14 09:53:06;;;;;;;14.65;10.07;;;;;;;10.04;79.15;99407.84;5030955;28;20491;-41
2023/03/14 09:55:32;;;;;;;13.90;10.05;;;;;;;10.01;79.96;99425.13;5030968;28;20068;-42
2023/03/14 09:58:02;;;;;;;14.00;10.20;;;;;;;9.99;80.96;99447.53;5029117;28;20029;-41
2023/03/14 10:00:30;;;;;;;14.02;10.30;;;;;;;10.07;79.29;99448.63;5030671;28;20061;-43
2023/03/14 10:03:02;;;;;;;16.17;10.20;;;;;;;10.10;77.73;99456.25;5030013;28;20120;-42
2023/03/14 10:05:29;;;;;;;13.70;10.30;;;;;;;10.12;78.19;99481.56;5030434;28;20451;-41
2023/03/14 10:07:54;;;;;;;14.70;10.38;;;;;;;10.06;76.12;99504.22;5030481;28;20396;-41
2023/03/14 10:10:22;;;;;;;15.63;10.32;;;;;;;10.06;76.94;99496.72;5030782;28;20032;-42
2023/03/14 10:12:56;;;;;;;16.33;10.55;;;;;;;10.12;76.62;99505.63;5030618;28;20033;-42
2023/03/14 10:15:30;;;;;;;17.58;10.63;;;;;;;10.14;76.99;99517.97;5030793;28;20033;-42
2023/03/14 10:17:59;;;;;;;15.68;9.90;;;;;;;10.06;75.69;99529.91;5030757;28;20040;-42
2023/03/14 10:20:32;;;;;;;16.70;10.40;;;;;;;10.17;76.45;99559.91;5030478;28;20047;-42
2023/03/14 10:23:04;;;;;;;18.83;10.60;;;;;;;10.16;76.16;99548.03;5030462;28;20492;-42
2023/03/14 10:25:31;;;;;;;16.38;10.40;;;;;;;10.16;75.29;99559.06;5030216;28;20075;-42
2023/03/14 10:27:57;;;;;;;18.25;10.90;;;;;;;10.15;74.28;99601.69;5029778;28;20559;-41
2023/03/14 10:30:44;;;;;;;18.45;10.50;;;;;;;10.18;72.62;99600.22;5021036;28;20059;-42
2023/03/14 10:33:10;;;;;;;16.10;10.48;;;;;;;10.00;72.04;99600.31;5018495;28;20037;-43
2023/03/14 10:35:36;;;;;;;19.35;10.70;;;;;;;10.04;73.48;99614.28;5021815;28;20042;-43
2023/03/14 10:38:03;;;;;;;16.50;10.30;;;;;;;9.94;73.30;99618.19;5026866;28;20035;-43
2023/03/14 10:40:30;;;;;;;18.95;10.82;;;;;;;9.91;75.59;99633.50;5030283;28;20397;-43
2023/03/14 10:42:58;;;;;;;18.83;10.60;;;;;;;9.93;76.79;99622.09;5030113;28;20124;-41
2023/03/14 10:45:35;;;;;;;18.27;10.50;;;;;;;10.07;73.46;99644.81;5030114;28;20026;-42
2023/03/14 10:48:31;;;;;;;17.60;10.70;;;;;;;10.01;72.78;99656.38;5025685;28;20905;-44
2023/03/14 10:50:59;;;;;;;18.58;10.70;;;;;;;10.09;71.99;99669.34;5009039;28;20108;-43
2023/03/14 10:53:25;;;;;;;19.88;10.68;;;;;;;10.11;72.80;99681.66;5010128;28;20041;-43
2023/03/14 10:55:51;;;;;;;19.92;11.15;;;;;;;10.11;69.97;99681.66;5010368;28;20029;-43
2023/03/14 10:58:20;;;;;;;19.58;10.68;;;;;;;10.01;70.41;99665.50;5009983;28;20041;-44
2023/03/14 11:00:53;;;;;;;19.40;11.20;;;;;;;10.21;69.18;99702.63;5010062;28;20496;-42
2023/03/14 11:03:20;;;;;;;21.90;11.60;;;;;;;10.20;69.12;99705.72;5010182;28;20037;-42
2023/03/14 11:05:48;;;;;;;20.85;11.38;;;;;;;10.17;69.71;99721.00;5009869;28;20439;-43
2023/03/14 11:08:47;;;;;;;21.42;10.93;;;;;;;10.30;70.37;99731.03;5015359;28;20120;-42
2023/03/14 11:11:18;;;;;;;19.80;10.85;;;;;;;10.26;69.33;99740.31;5030035;28;20033;-41
2023/03/14 11:14:12;;;;;;;18.98;10.50;;;;;;;10.18;67.45;99757.75;5029570;28;20057;-44
2023/03/14 11:16:44;;;;;;;;;;;;;;;10.27;70.71;99751.03;5024880;28;20073;-42